sensor_id;sensor_type;location;lat;lon;timestamp;P1;durP1;ratioP1;P2;durP2;ratioP2
68188;SDS011;66299;47.514;19.218;2024-03-02T00:01:37;49.33;;;30.83;;
68188;SDS011;66299;47.514;19.218;2024-03-02T00:04:06;48.40;;;29.98;;
68188;SDS011;66299;47.514;19.218;2024-03-02T00:06:37;52.83;;;30.65;;
68188;SDS011;66299;47.514;19.218;2024-03-02T00:09:06;52.25;;;30.70;;
68188;SDS011;66299;47.514;19.218;2024-03-02T00:11:40;50.60;;;31.15;;
68188;SDS011;66299;47.514;19.218;2024-03-02T00:14:09;49.88;;;30.70;;
68188;SDS011;66299;47.514;19.218;2024-03-02T00:16:38;53.00;;;31.85;;
68188;SDS011;66299;47.514;19.218;2024-03-02T00:19:07;50.83;;;31.08;;
68188;SDS011;66299;47.514;19.218;2024-03-02T00:21:38;49.13;;;30.92;;
68188;SDS011;66299;47.514;19.218;2024-03-02T00:24:07;49.28;;;30.70;;
68188;SDS011;66299;47.514;19.218;2024-03-02T00:26:48;46.53;;;29.98;;
68188;SDS011;66299;47.514;19.218;2024-03-02T00:29:17;49.97;;;30.40;;
68188;SDS011;66299;47.514;19.218;2024-03-02T00:31:47;52.60;;;30.23;;
68188;SDS011;66299;47.514;19.218;2024-03-02T00:34:15;49.92;;;30.42;;
68188;SDS011;66299;47.514;19.218;2024-03-02T00:36:47;49.67;;;30.58;;
68188;SDS011;66299;47.514;19.218;2024-03-02T00:39:16;50.83;;;31.55;;
68188;SDS011;66299;47.514;19.218;2024-03-02T00:41:45;53.30;;;29.85;;
68188;SDS011;66299;47.514;19.218;2024-03-02T00:44:15;47.55;;;30.05;;
68188;SDS011;66299;47.514;19.218;2024-03-02T00:46:49;45.60;;;29.30;;
68188;SDS011;66299;47.514;19.218;2024-03-02T00:49:18;46.85;;;29.42;;
68188;SDS011;66299;47.514;19.218;2024-03-02T00:51:54;53.17;;;30.08;;
68188;SDS011;66299;47.514;19.218;2024-03-02T00:54:24;51.60;;;29.27;;
68188;SDS011;66299;47.514;19.218;2024-03-02T00:56:55;44.95;;;28.48;;
68188;SDS011;66299;47.514;19.218;2024-03-02T00:59:25;45.63;;;28.17;;
68188;SDS011;66299;47.514;19.218;2024-03-02T01:01:53;44.08;;;27.77;;
68188;SDS011;66299;47.514;19.218;2024-03-02T01:04:23;47.85;;;28.90;;
68188;SDS011;66299;47.514;19.218;2024-03-02T01:06:53;47.35;;;27.67;;
68188;SDS011;66299;47.514;19.218;2024-03-02T01:09:22;48.50;;;27.45;;
68188;SDS011;66299;47.514;19.218;2024-03-02T01:11:51;43.67;;;26.98;;
68188;SDS011;66299;47.514;19.218;2024-03-02T01:14:22;47.20;;;27.73;;
68188;SDS011;66299;47.514;19.218;2024-03-02T01:16:51;42.88;;;26.67;;
68188;SDS011;66299;47.514;19.218;2024-03-02T01:19:20;47.53;;;27.02;;
68188;SDS011;66299;47.514;19.218;2024-03-02T01:21:48;51.40;;;26.73;;
68188;SDS011;66299;47.514;19.218;2024-03-02T01:24:19;40.60;;;25.60;;
68188;SDS011;66299;47.514;19.218;2024-03-02T01:26:48;44.10;;;25.25;;
68188;SDS011;66299;47.514;19.218;2024-03-02T01:29:17;41.90;;;25.52;;
68188;SDS011;66299;47.514;19.218;2024-03-02T01:31:46;44.63;;;25.52;;
68188;SDS011;66299;47.514;19.218;2024-03-02T01:34:14;42.83;;;25.85;;
68188;SDS011;66299;47.514;19.218;2024-03-02T01:36:43;41.55;;;25.65;;
68188;SDS011;66299;47.514;19.218;2024-03-02T01:39:12;41.53;;;24.30;;
68188;SDS011;66299;47.514;19.218;2024-03-02T01:41:42;46.42;;;25.35;;
68188;SDS011;66299;47.514;19.218;2024-03-02T01:44:12;46.72;;;25.15;;
68188;SDS011;66299;47.514;19.218;2024-03-02T01:46:40;44.35;;;24.90;;
68188;SDS011;66299;47.514;19.218;2024-03-02T01:49:09;45.70;;;25.88;;
68188;SDS011;66299;47.514;19.218;2024-03-02T01:51:38;40.58;;;25.38;;
68188;SDS011;66299;47.514;19.218;2024-03-02T01:54:07;42.90;;;25.13;;
68188;SDS011;66299;47.514;19.218;2024-03-02T01:56:36;44.10;;;25.38;;
68188;SDS011;66299;47.514;19.218;2024-03-02T01:59:07;41.75;;;24.75;;
68188;SDS011;66299;47.514;19.218;2024-03-02T02:01:36;42.92;;;26.08;;
68188;SDS011;66299;47.514;19.218;2024-03-02T02:04:05;47.55;;;26.33;;
68188;SDS011;66299;47.514;19.218;2024-03-02T02:06:34;46.15;;;26.17;;
68188;SDS011;66299;47.514;19.218;2024-03-02T02:09:03;42.65;;;25.35;;
68188;SDS011;66299;47.514;19.218;2024-03-02T02:11:31;41.13;;;25.05;;
68188;SDS011;66299;47.514;19.218;2024-03-02T02:14:00;41.33;;;25.48;;
68188;SDS011;66299;47.514;19.218;2024-03-02T02:16:30;43.25;;;24.83;;
68188;SDS011;66299;47.514;19.218;2024-03-02T02:18:58;44.85;;;25.65;;
68188;SDS011;66299;47.514;19.218;2024-03-02T02:21:30;40.28;;;25.13;;
68188;SDS011;66299;47.514;19.218;2024-03-02T02:23:57;42.33;;;24.85;;
68188;SDS011;66299;47.514;19.218;2024-03-02T02:26:26;40.75;;;25.33;;
68188;SDS011;66299;47.514;19.218;2024-03-02T02:28:54;40.22;;;24.45;;
68188;SDS011;66299;47.514;19.218;2024-03-02T02:31:24;40.78;;;24.65;;
68188;SDS011;66299;47.514;19.218;2024-03-02T02:33:53;40.67;;;24.20;;
68188;SDS011;66299;47.514;19.218;2024-03-02T02:36:22;44.00;;;24.00;;
68188;SDS011;66299;47.514;19.218;2024-03-02T02:38:52;39.75;;;24.08;;
68188;SDS011;66299;47.514;19.218;2024-03-02T02:41:21;44.90;;;23.75;;
68188;SDS011;66299;47.514;19.218;2024-03-02T02:43:50;40.63;;;23.67;;
68188;SDS011;66299;47.514;19.218;2024-03-02T02:46:19;41.05;;;23.75;;
68188;SDS011;66299;47.514;19.218;2024-03-02T02:48:47;41.72;;;23.75;;
68188;SDS011;66299;47.514;19.218;2024-03-02T02:51:17;39.70;;;23.10;;
68188;SDS011;66299;47.514;19.218;2024-03-02T02:53:46;41.92;;;24.27;;
68188;SDS011;66299;47.514;19.218;2024-03-02T02:56:15;46.67;;;23.67;;
68188;SDS011;66299;47.514;19.218;2024-03-02T02:58:44;45.33;;;24.80;;
68188;SDS011;66299;47.514;19.218;2024-03-02T03:01:12;44.33;;;24.35;;
68188;SDS011;66299;47.514;19.218;2024-03-02T03:03:41;40.63;;;23.95;;
68188;SDS011;66299;47.514;19.218;2024-03-02T03:06:10;39.67;;;24.25;;
68188;SDS011;66299;47.514;19.218;2024-03-02T03:08:38;43.95;;;24.25;;
68188;SDS011;66299;47.514;19.218;2024-03-02T03:11:07;40.22;;;24.15;;
68188;SDS011;66299;47.514;19.218;2024-03-02T03:13:38;39.10;;;23.50;;
68188;SDS011;66299;47.514;19.218;2024-03-02T03:16:09;41.53;;;24.35;;
68188;SDS011;66299;47.514;19.218;2024-03-02T03:18:39;41.92;;;24.15;;
68188;SDS011;66299;47.514;19.218;2024-03-02T03:21:08;41.70;;;24.75;;
68188;SDS011;66299;47.514;19.218;2024-03-02T03:23:37;43.90;;;25.10;;
68188;SDS011;66299;47.514;19.218;2024-03-02T03:26:06;42.17;;;24.77;;
68188;SDS011;66299;47.514;19.218;2024-03-02T03:28:35;42.17;;;25.38;;
68188;SDS011;66299;47.514;19.218;2024-03-02T03:31:05;43.97;;;24.60;;
68188;SDS011;66299;47.514;19.218;2024-03-02T03:33:34;42.25;;;25.50;;
68188;SDS011;66299;47.514;19.218;2024-03-02T03:36:03;46.05;;;24.95;;
68188;SDS011;66299;47.514;19.218;2024-03-02T03:38:32;43.33;;;26.17;;
68188;SDS011;66299;47.514;19.218;2024-03-02T03:41:00;42.10;;;25.45;;
68188;SDS011;66299;47.514;19.218;2024-03-02T03:43:29;44.42;;;25.35;;
68188;SDS011;66299;47.514;19.218;2024-03-02T03:45:58;44.67;;;25.13;;
68188;SDS011;66299;47.514;19.218;2024-03-02T03:48:28;42.80;;;26.35;;
68188;SDS011;66299;47.514;19.218;2024-03-02T03:50:58;42.58;;;26.30;;
68188;SDS011;66299;47.514;19.218;2024-03-02T03:53:27;46.47;;;26.95;;
68188;SDS011;66299;47.514;19.218;2024-03-02T03:55:56;45.28;;;27.08;;
68188;SDS011;66299;47.514;19.218;2024-03-02T03:58:24;48.20;;;28.10;;
68188;SDS011;66299;47.514;19.218;2024-03-02T04:00:53;48.83;;;27.38;;
68188;SDS011;66299;47.514;19.218;2024-03-02T04:03:22;51.90;;;27.75;;
68188;SDS011;66299;47.514;19.218;2024-03-02T04:05:52;50.47;;;28.42;;
68188;SDS011;66299;47.514;19.218;2024-03-02T04:08:21;52.95;;;27.95;;
68188;SDS011;66299;47.514;19.218;2024-03-02T04:10:49;50.47;;;28.70;;
68188;SDS011;66299;47.514;19.218;2024-03-02T04:13:18;48.03;;;27.83;;
68188;SDS011;66299;47.514;19.218;2024-03-02T04:15:47;50.40;;;28.40;;
68188;SDS011;66299;47.514;19.218;2024-03-02T04:18:17;52.10;;;29.17;;
68188;SDS011;66299;47.514;19.218;2024-03-02T04:20:46;47.92;;;28.50;;
68188;SDS011;66299;47.514;19.218;2024-03-02T04:23:21;53.63;;;29.15;;
68188;SDS011;66299;47.514;19.218;2024-03-02T04:25:49;52.38;;;29.58;;
68188;SDS011;66299;47.514;19.218;2024-03-02T04:28:18;47.58;;;28.55;;
68188;SDS011;66299;47.514;19.218;2024-03-02T04:30:49;51.42;;;30.02;;
68188;SDS011;66299;47.514;19.218;2024-03-02T04:33:20;49.80;;;30.13;;
68188;SDS011;66299;47.514;19.218;2024-03-02T04:35:49;54.50;;;30.48;;
68188;SDS011;66299;47.514;19.218;2024-03-02T04:38:18;52.53;;;30.02;;
68188;SDS011;66299;47.514;19.218;2024-03-02T04:40:50;50.03;;;29.00;;
68188;SDS011;66299;47.514;19.218;2024-03-02T04:43:18;52.70;;;29.77;;
68188;SDS011;66299;47.514;19.218;2024-03-02T04:45:47;51.35;;;30.08;;
68188;SDS011;66299;47.514;19.218;2024-03-02T04:48:16;57.58;;;31.00;;
68188;SDS011;66299;47.514;19.218;2024-03-02T04:50:46;51.58;;;29.73;;
68188;SDS011;66299;47.514;19.218;2024-03-02T04:53:14;49.33;;;29.70;;
68188;SDS011;66299;47.514;19.218;2024-03-02T04:55:43;50.70;;;29.88;;
68188;SDS011;66299;47.514;19.218;2024-03-02T04:58:54;50.05;;;30.15;;
68188;SDS011;66299;47.514;19.218;2024-03-02T05:01:23;56.03;;;29.90;;
68188;SDS011;66299;47.514;19.218;2024-03-02T05:03:51;52.08;;;30.33;;
68188;SDS011;66299;47.514;19.218;2024-03-02T05:06:20;51.85;;;30.02;;
68188;SDS011;66299;47.514;19.218;2024-03-02T05:08:50;53.97;;;30.13;;
68188;SDS011;66299;47.514;19.218;2024-03-02T05:11:18;52.03;;;29.42;;
68188;SDS011;66299;47.514;19.218;2024-03-02T05:14:15;52.35;;;30.95;;
68188;SDS011;66299;47.514;19.218;2024-03-02T05:16:45;50.53;;;29.58;;
68188;SDS011;66299;47.514;19.218;2024-03-02T05:19:13;53.55;;;30.65;;
68188;SDS011;66299;47.514;19.218;2024-03-02T05:21:43;51.65;;;30.65;;
68188;SDS011;66299;47.514;19.218;2024-03-02T05:24:11;55.67;;;30.70;;
68188;SDS011;66299;47.514;19.218;2024-03-02T05:26:39;53.33;;;29.65;;
68188;SDS011;66299;47.514;19.218;2024-03-02T05:29:08;51.58;;;29.90;;
68188;SDS011;66299;47.514;19.218;2024-03-02T05:31:38;51.47;;;30.13;;
68188;SDS011;66299;47.514;19.218;2024-03-02T05:34:07;53.78;;;29.55;;
68188;SDS011;66299;47.514;19.218;2024-03-02T05:36:38;49.33;;;28.75;;
68188;SDS011;66299;47.514;19.218;2024-03-02T05:39:06;54.63;;;30.25;;
68188;SDS011;66299;47.514;19.218;2024-03-02T05:41:36;57.10;;;30.38;;
68188;SDS011;66299;47.514;19.218;2024-03-02T05:44:05;53.30;;;30.33;;
68188;SDS011;66299;47.514;19.218;2024-03-02T05:46:34;53.53;;;30.15;;
68188;SDS011;66299;47.514;19.218;2024-03-02T05:49:06;54.55;;;31.73;;
68188;SDS011;66299;47.514;19.218;2024-03-02T05:51:38;58.30;;;31.70;;
68188;SDS011;66299;47.514;19.218;2024-03-02T05:54:08;56.17;;;31.50;;
68188;SDS011;66299;47.514;19.218;2024-03-02T05:56:37;55.40;;;32.28;;
68188;SDS011;66299;47.514;19.218;2024-03-02T05:59:05;59.65;;;32.90;;
68188;SDS011;66299;47.514;19.218;2024-03-02T06:01:41;59.45;;;34.17;;
68188;SDS011;66299;47.514;19.218;2024-03-02T06:04:12;62.97;;;35.47;;
68188;SDS011;66299;47.514;19.218;2024-03-02T06:06:41;63.45;;;35.30;;
68188;SDS011;66299;47.514;19.218;2024-03-02T06:09:11;62.30;;;34.17;;
68188;SDS011;66299;47.514;19.218;2024-03-02T06:11:44;61.58;;;34.38;;
68188;SDS011;66299;47.514;19.218;2024-03-02T06:14:13;62.47;;;33.95;;
68188;SDS011;66299;47.514;19.218;2024-03-02T06:16:42;59.83;;;32.85;;
68188;SDS011;66299;47.514;19.218;2024-03-02T06:19:12;59.47;;;33.80;;
68188;SDS011;66299;47.514;19.218;2024-03-02T06:21:42;55.70;;;30.67;;
68188;SDS011;66299;47.514;19.218;2024-03-02T06:24:11;56.40;;;32.03;;
68188;SDS011;66299;47.514;19.218;2024-03-02T06:26:39;54.50;;;31.98;;
68188;SDS011;66299;47.514;19.218;2024-03-02T06:29:08;52.00;;;30.27;;
68188;SDS011;66299;47.514;19.218;2024-03-02T06:31:37;54.88;;;31.08;;
68188;SDS011;66299;47.514;19.218;2024-03-02T06:34:05;54.00;;;31.02;;
68188;SDS011;66299;47.514;19.218;2024-03-02T06:36:36;58.58;;;31.83;;
68188;SDS011;66299;47.514;19.218;2024-03-02T06:39:07;54.90;;;30.63;;
68188;SDS011;66299;47.514;19.218;2024-03-02T06:41:36;55.50;;;31.65;;
68188;SDS011;66299;47.514;19.218;2024-03-02T06:44:04;53.80;;;30.80;;
68188;SDS011;66299;47.514;19.218;2024-03-02T06:46:33;53.05;;;30.00;;
68188;SDS011;66299;47.514;19.218;2024-03-02T06:49:03;51.95;;;30.27;;
68188;SDS011;66299;47.514;19.218;2024-03-02T06:51:33;55.40;;;31.10;;
68188;SDS011;66299;47.514;19.218;2024-03-02T06:54:05;56.47;;;30.80;;
68188;SDS011;66299;47.514;19.218;2024-03-02T06:56:34;56.50;;;30.73;;
68188;SDS011;66299;47.514;19.218;2024-03-02T06:59:02;53.33;;;31.02;;
68188;SDS011;66299;47.514;19.218;2024-03-02T07:01:30;54.75;;;30.27;;
68188;SDS011;66299;47.514;19.218;2024-03-02T07:04:00;55.17;;;31.45;;
68188;SDS011;66299;47.514;19.218;2024-03-02T07:06:28;54.88;;;31.35;;
68188;SDS011;66299;47.514;19.218;2024-03-02T07:08:58;53.50;;;30.48;;
68188;SDS011;66299;47.514;19.218;2024-03-02T07:11:28;56.13;;;31.20;;
68188;SDS011;66299;47.514;19.218;2024-03-02T07:13:57;56.13;;;32.63;;
68188;SDS011;66299;47.514;19.218;2024-03-02T07:16:26;53.28;;;31.20;;
68188;SDS011;66299;47.514;19.218;2024-03-02T07:19:00;54.40;;;32.20;;
68188;SDS011;66299;47.514;19.218;2024-03-02T07:21:29;55.17;;;32.30;;
68188;SDS011;66299;47.514;19.218;2024-03-02T07:23:59;56.25;;;32.88;;
68188;SDS011;66299;47.514;19.218;2024-03-02T07:26:31;58.20;;;32.08;;
68188;SDS011;66299;47.514;19.218;2024-03-02T07:29:02;52.85;;;30.60;;
68188;SDS011;66299;47.514;19.218;2024-03-02T07:31:31;53.25;;;31.60;;
68188;SDS011;66299;47.514;19.218;2024-03-02T07:33:59;57.05;;;33.72;;
68188;SDS011;66299;47.514;19.218;2024-03-02T07:36:29;58.53;;;34.40;;
68188;SDS011;66299;47.514;19.218;2024-03-02T07:38:57;60.17;;;34.97;;
68188;SDS011;66299;47.514;19.218;2024-03-02T07:41:26;56.33;;;33.28;;
68188;SDS011;66299;47.514;19.218;2024-03-02T07:43:58;55.95;;;31.77;;
68188;SDS011;66299;47.514;19.218;2024-03-02T07:46:27;49.03;;;30.20;;
68188;SDS011;66299;47.514;19.218;2024-03-02T07:48:56;51.72;;;30.63;;
68188;SDS011;66299;47.514;19.218;2024-03-02T07:51:24;53.53;;;30.08;;
68188;SDS011;66299;47.514;19.218;2024-03-02T07:53:53;50.70;;;30.13;;
68188;SDS011;66299;47.514;19.218;2024-03-02T07:56:22;56.63;;;30.63;;
68188;SDS011;66299;47.514;19.218;2024-03-02T07:58:52;49.70;;;29.52;;
68188;SDS011;66299;47.514;19.218;2024-03-02T08:01:22;50.03;;;29.83;;
68188;SDS011;66299;47.514;19.218;2024-03-02T08:03:51;48.95;;;30.27;;
68188;SDS011;66299;47.514;19.218;2024-03-02T08:06:20;48.45;;;29.35;;
68188;SDS011;66299;47.514;19.218;2024-03-02T08:08:48;49.67;;;29.67;;
68188;SDS011;66299;47.514;19.218;2024-03-02T08:11:18;50.55;;;29.77;;
68188;SDS011;66299;47.514;19.218;2024-03-02T08:13:47;46.60;;;29.13;;
68188;SDS011;66299;47.514;19.218;2024-03-02T08:16:16;52.40;;;30.23;;
68188;SDS011;66299;47.514;19.218;2024-03-02T08:18:48;51.00;;;31.33;;
68188;SDS011;66299;47.514;19.218;2024-03-02T08:21:17;51.90;;;31.10;;
68188;SDS011;66299;47.514;19.218;2024-03-02T08:23:47;50.67;;;29.85;;
68188;SDS011;66299;47.514;19.218;2024-03-02T08:26:15;52.60;;;31.73;;
68188;SDS011;66299;47.514;19.218;2024-03-02T08:28:46;53.20;;;31.73;;
68188;SDS011;66299;47.514;19.218;2024-03-02T08:31:15;52.42;;;29.63;;
68188;SDS011;66299;47.514;19.218;2024-03-02T08:33:44;47.60;;;30.05;;
68188;SDS011;66299;47.514;19.218;2024-03-02T08:36:14;49.65;;;30.08;;
68188;SDS011;66299;47.514;19.218;2024-03-02T08:38:43;54.25;;;29.23;;
68188;SDS011;66299;47.514;19.218;2024-03-02T08:41:14;49.95;;;29.88;;
68188;SDS011;66299;47.514;19.218;2024-03-02T08:43:45;48.90;;;29.15;;
68188;SDS011;66299;47.514;19.218;2024-03-02T08:46:15;50.17;;;29.85;;
68188;SDS011;66299;47.514;19.218;2024-03-02T08:48:46;50.45;;;30.55;;
68188;SDS011;66299;47.514;19.218;2024-03-02T08:51:17;54.05;;;31.20;;
68188;SDS011;66299;47.514;19.218;2024-03-02T08:56:18;49.20;;;30.15;;
68188;SDS011;66299;47.514;19.218;2024-03-02T08:58:48;49.47;;;29.08;;
68188;SDS011;66299;47.514;19.218;2024-03-02T09:01:17;46.10;;;27.98;;
68188;SDS011;66299;47.514;19.218;2024-03-02T09:03:48;46.35;;;28.08;;
68188;SDS011;66299;47.514;19.218;2024-03-02T09:06:19;44.35;;;28.15;;
68188;SDS011;66299;47.514;19.218;2024-03-02T09:08:51;44.88;;;27.40;;
68188;SDS011;66299;47.514;19.218;2024-03-02T09:11:20;44.65;;;26.83;;
68188;SDS011;66299;47.514;19.218;2024-03-02T09:13:49;43.03;;;27.20;;
68188;SDS011;66299;47.514;19.218;2024-03-02T09:16:18;43.60;;;27.63;;
68188;SDS011;66299;47.514;19.218;2024-03-02T09:18:47;44.88;;;27.42;;
68188;SDS011;66299;47.514;19.218;2024-03-02T09:21:18;41.70;;;25.95;;
68188;SDS011;66299;47.514;19.218;2024-03-02T09:23:48;40.63;;;25.98;;
68188;SDS011;66299;47.514;19.218;2024-03-02T09:26:18;39.80;;;25.10;;
68188;SDS011;66299;47.514;19.218;2024-03-02T09:28:48;41.97;;;25.50;;
68188;SDS011;66299;47.514;19.218;2024-03-02T09:31:17;41.67;;;25.20;;
68188;SDS011;66299;47.514;19.218;2024-03-02T09:33:46;36.55;;;22.95;;
68188;SDS011;66299;47.514;19.218;2024-03-02T09:36:20;37.33;;;23.75;;
68188;SDS011;66299;47.514;19.218;2024-03-02T09:38:50;37.03;;;22.90;;
68188;SDS011;66299;47.514;19.218;2024-03-02T09:41:19;32.83;;;21.10;;
68188;SDS011;66299;47.514;19.218;2024-03-02T09:43:48;31.55;;;20.70;;
68188;SDS011;66299;47.514;19.218;2024-03-02T09:46:17;31.73;;;20.83;;
68188;SDS011;66299;47.514;19.218;2024-03-02T09:48:46;34.30;;;20.83;;
68188;SDS011;66299;47.514;19.218;2024-03-02T09:51:15;33.72;;;21.30;;
68188;SDS011;66299;47.514;19.218;2024-03-02T09:53:48;30.88;;;20.05;;
68188;SDS011;66299;47.514;19.218;2024-03-02T09:56:17;30.77;;;19.10;;
68188;SDS011;66299;47.514;19.218;2024-03-02T09:58:46;29.88;;;19.15;;
68188;SDS011;66299;47.514;19.218;2024-03-02T10:01:17;28.23;;;19.23;;
68188;SDS011;66299;47.514;19.218;2024-03-02T10:03:46;30.50;;;19.45;;
68188;SDS011;66299;47.514;19.218;2024-03-02T10:06:21;30.00;;;19.75;;
68188;SDS011;66299;47.514;19.218;2024-03-02T10:08:53;30.08;;;19.10;;
68188;SDS011;66299;47.514;19.218;2024-03-02T10:11:27;32.38;;;19.10;;
68188;SDS011;66299;47.514;19.218;2024-03-02T10:14:06;31.83;;;19.90;;
68188;SDS011;66299;47.514;19.218;2024-03-02T10:16:36;29.50;;;18.67;;
68188;SDS011;66299;47.514;19.218;2024-03-02T10:19:15;28.23;;;18.45;;
68188;SDS011;66299;47.514;19.218;2024-03-02T10:21:45;26.27;;;16.40;;
68188;SDS011;66299;47.514;19.218;2024-03-02T10:24:15;26.10;;;16.73;;
68188;SDS011;66299;47.514;19.218;2024-03-02T10:26:44;26.88;;;16.92;;
68188;SDS011;66299;47.514;19.218;2024-03-02T10:29:13;26.25;;;16.95;;
68188;SDS011;66299;47.514;19.218;2024-03-02T10:31:43;25.10;;;16.35;;
68188;SDS011;66299;47.514;19.218;2024-03-02T10:34:12;26.17;;;17.30;;
68188;SDS011;66299;47.514;19.218;2024-03-02T10:36:43;26.02;;;16.50;;
68188;SDS011;66299;47.514;19.218;2024-03-02T10:39:13;25.67;;;16.02;;
68188;SDS011;66299;47.514;19.218;2024-03-02T10:41:46;24.75;;;16.35;;
68188;SDS011;66299;47.514;19.218;2024-03-02T10:44:20;26.75;;;16.67;;
68188;SDS011;66299;47.514;19.218;2024-03-02T10:46:51;25.48;;;16.00;;
68188;SDS011;66299;47.514;19.218;2024-03-02T10:49:22;24.70;;;16.30;;
68188;SDS011;66299;47.514;19.218;2024-03-02T10:51:52;25.97;;;16.53;;
68188;SDS011;66299;47.514;19.218;2024-03-02T10:54:21;28.65;;;17.42;;
68188;SDS011;66299;47.514;19.218;2024-03-02T10:56:54;26.48;;;17.63;;
68188;SDS011;66299;47.514;19.218;2024-03-02T10:59:26;26.92;;;17.48;;
68188;SDS011;66299;47.514;19.218;2024-03-02T11:01:58;26.42;;;17.50;;
68188;SDS011;66299;47.514;19.218;2024-03-02T11:04:32;28.45;;;18.33;;
68188;SDS011;66299;47.514;19.218;2024-03-02T11:07:02;29.67;;;19.08;;
68188;SDS011;66299;47.514;19.218;2024-03-02T11:09:35;27.65;;;18.67;;
68188;SDS011;66299;47.514;19.218;2024-03-02T11:12:09;28.77;;;18.27;;
68188;SDS011;66299;47.514;19.218;2024-03-02T11:14:42;30.38;;;20.05;;
68188;SDS011;66299;47.514;19.218;2024-03-02T11:17:11;32.53;;;19.70;;
68188;SDS011;66299;47.514;19.218;2024-03-02T11:19:43;29.15;;;18.73;;
68188;SDS011;66299;47.514;19.218;2024-03-02T11:22:14;28.47;;;19.27;;
68188;SDS011;66299;47.514;19.218;2024-03-02T11:24:50;31.05;;;20.92;;
68188;SDS011;66299;47.514;19.218;2024-03-02T11:33:22;28.35;;;19.33;;
68188;SDS011;66299;47.514;19.218;2024-03-02T11:35:56;29.95;;;18.98;;
68188;SDS011;66299;47.514;19.218;2024-03-02T11:38:32;28.60;;;18.40;;
68188;SDS011;66299;47.514;19.218;2024-03-02T11:41:05;24.98;;;16.48;;
68188;SDS011;66299;47.514;19.218;2024-03-02T11:43:37;23.48;;;16.25;;
68188;SDS011;66299;47.514;19.218;2024-03-02T11:48:37;25.33;;;16.25;;
68188;SDS011;66299;47.514;19.218;2024-03-02T11:51:07;26.40;;;16.65;;
68188;SDS011;66299;47.514;19.218;2024-03-02T11:53:36;24.83;;;16.88;;
68188;SDS011;66299;47.514;19.218;2024-03-02T11:56:10;25.25;;;16.60;;
68188;SDS011;66299;47.514;19.218;2024-03-02T11:58:41;26.27;;;17.35;;
68188;SDS011;66299;47.514;19.218;2024-03-02T12:01:10;30.33;;;19.17;;
68188;SDS011;66299;47.514;19.218;2024-03-02T12:03:40;31.00;;;19.77;;
68188;SDS011;66299;47.514;19.218;2024-03-02T12:06:09;29.10;;;18.50;;
68188;SDS011;66299;47.514;19.218;2024-03-02T12:08:39;29.05;;;18.40;;
68188;SDS011;66299;47.514;19.218;2024-03-02T12:11:12;27.77;;;18.55;;
68188;SDS011;66299;47.514;19.218;2024-03-02T12:13:51;29.77;;;18.58;;
68188;SDS011;66299;47.514;19.218;2024-03-02T12:16:24;32.65;;;19.60;;
68188;SDS011;66299;47.514;19.218;2024-03-02T12:18:54;28.52;;;18.65;;
68188;SDS011;66299;47.514;19.218;2024-03-02T12:21:23;29.65;;;19.30;;
68188;SDS011;66299;47.514;19.218;2024-03-02T12:23:52;30.08;;;19.15;;
68188;SDS011;66299;47.514;19.218;2024-03-02T12:26:25;32.47;;;19.77;;
68188;SDS011;66299;47.514;19.218;2024-03-02T12:28:55;29.67;;;19.08;;
68188;SDS011;66299;47.514;19.218;2024-03-02T12:31:23;30.70;;;19.90;;
68188;SDS011;66299;47.514;19.218;2024-03-02T12:33:52;34.78;;;20.60;;
68188;SDS011;66299;47.514;19.218;2024-03-02T12:36:23;34.72;;;20.88;;
68188;SDS011;66299;47.514;19.218;2024-03-02T12:38:54;30.38;;;17.92;;
68188;SDS011;66299;47.514;19.218;2024-03-02T12:41:26;28.97;;;16.93;;
68188;SDS011;66299;47.514;19.218;2024-03-02T12:43:59;26.05;;;15.93;;
68188;SDS011;66299;47.514;19.218;2024-03-02T12:46:27;26.98;;;15.27;;
68188;SDS011;66299;47.514;19.218;2024-03-02T12:48:57;25.88;;;15.35;;
68188;SDS011;66299;47.514;19.218;2024-03-02T12:51:26;26.90;;;15.75;;
68188;SDS011;66299;47.514;19.218;2024-03-02T12:53:59;25.13;;;15.25;;
68188;SDS011;66299;47.514;19.218;2024-03-02T12:56:31;28.15;;;16.65;;
68188;SDS011;66299;47.514;19.218;2024-03-02T12:59:03;28.15;;;16.05;;
68188;SDS011;66299;47.514;19.218;2024-03-02T13:01:32;27.20;;;15.95;;
68188;SDS011;66299;47.514;19.218;2024-03-02T13:04:03;28.05;;;15.13;;
68188;SDS011;66299;47.514;19.218;2024-03-02T13:06:34;28.33;;;16.23;;
68188;SDS011;66299;47.514;19.218;2024-03-02T13:09:03;33.95;;;16.77;;
68188;SDS011;66299;47.514;19.218;2024-03-02T13:11:46;30.00;;;16.67;;
68188;SDS011;66299;47.514;19.218;2024-03-02T13:14:16;30.08;;;16.40;;
68188;SDS011;66299;47.514;19.218;2024-03-02T13:16:45;30.23;;;16.38;;
68188;SDS011;66299;47.514;19.218;2024-03-02T13:19:14;30.42;;;16.42;;
68188;SDS011;66299;47.514;19.218;2024-03-02T13:21:43;37.25;;;18.17;;
68188;SDS011;66299;47.514;19.218;2024-03-02T13:24:11;48.58;;;24.50;;
68188;SDS011;66299;47.514;19.218;2024-03-02T13:26:41;46.40;;;25.25;;
68188;SDS011;66299;47.514;19.218;2024-03-02T13:29:13;43.85;;;24.20;;
68188;SDS011;66299;47.514;19.218;2024-03-02T13:31:44;50.60;;;27.00;;
68188;SDS011;66299;47.514;19.218;2024-03-02T13:34:16;40.63;;;22.13;;
68188;SDS011;66299;47.514;19.218;2024-03-02T13:36:44;34.60;;;19.42;;
68188;SDS011;66299;47.514;19.218;2024-03-02T13:39:13;34.13;;;18.83;;
68188;SDS011;66299;47.514;19.218;2024-03-02T13:41:43;30.60;;;17.95;;
68188;SDS011;66299;47.514;19.218;2024-03-02T13:44:21;33.40;;;17.33;;
68188;SDS011;66299;47.514;19.218;2024-03-02T13:46:50;32.85;;;17.98;;
68188;SDS011;66299;47.514;19.218;2024-03-02T13:49:19;35.72;;;19.35;;
68188;SDS011;66299;47.514;19.218;2024-03-02T13:51:49;33.13;;;18.55;;
68188;SDS011;66299;47.514;19.218;2024-03-02T13:54:18;37.78;;;19.42;;
68188;SDS011;66299;47.514;19.218;2024-03-02T13:56:47;37.58;;;19.17;;
68188;SDS011;66299;47.514;19.218;2024-03-02T13:59:18;34.20;;;19.10;;
68188;SDS011;66299;47.514;19.218;2024-03-02T14:01:49;32.50;;;17.73;;
68188;SDS011;66299;47.514;19.218;2024-03-02T14:04:19;32.85;;;17.70;;
68188;SDS011;66299;47.514;19.218;2024-03-02T14:06:49;36.72;;;17.60;;
68188;SDS011;66299;47.514;19.218;2024-03-02T14:09:19;34.13;;;18.02;;
68188;SDS011;66299;47.514;19.218;2024-03-02T14:11:51;30.30;;;17.95;;
68188;SDS011;66299;47.514;19.218;2024-03-02T14:14:21;31.83;;;17.75;;
68188;SDS011;66299;47.514;19.218;2024-03-02T14:16:53;32.70;;;18.77;;
68188;SDS011;66299;47.514;19.218;2024-03-02T14:19:27;34.00;;;17.95;;
68188;SDS011;66299;47.514;19.218;2024-03-02T14:21:55;29.23;;;15.98;;
68188;SDS011;66299;47.514;19.218;2024-03-02T14:24:24;32.47;;;16.23;;
68188;SDS011;66299;47.514;19.218;2024-03-02T14:26:52;31.55;;;17.02;;
68188;SDS011;66299;47.514;19.218;2024-03-02T14:29:36;32.33;;;17.70;;
68188;SDS011;66299;47.514;19.218;2024-03-02T14:32:07;30.52;;;18.10;;
68188;SDS011;66299;47.514;19.218;2024-03-02T14:34:37;33.55;;;18.58;;
68188;SDS011;66299;47.514;19.218;2024-03-02T14:37:06;38.88;;;20.05;;